Time;durP1;ratioP1;P1;durP2;ratioP2;P2;SDS_P1;SDS_P2;PMS_P1;PMS_P2;Temp;Humidity;BMP_temperature;BMP_pressure;BME280_temperature;BME280_humidity;BME280_pressure;Samples;Min_cycle;Max_cycle;Signal;HPM_P1;HPM_P2
2021/12/28 00:00:23;;;;;;;0.00;0.00;;;2.90;99.90;;;;;;4942108;28;20055;-58
2021/12/28 00:02:49;;;;;;;0.00;0.00;;;2.90;99.90;;;;;;4942042;28;20246;-58
2021/12/28 00:05:17;;;;;;;0.00;0.00;;;2.90;99.90;;;;;;4942382;28;20054;-59
2021/12/28 00:07:43;;;;;;;0.00;0.00;;;3.00;99.90;;;;;;4941924;28;20059;-58
2021/12/28 00:10:11;;;;;;;0.00;0.00;;;3.00;99.90;;;;;;4941662;28;20052;-58
2021/12/28 00:12:38;;;;;;;0.00;0.00;;;3.00;99.90;;;;;;4941412;28;20067;-58
2021/12/28 00:17:59;;;;;;;0.00;0.00;;;3.00;99.90;;;;;;4941698;28;20051;-58
2021/12/28 00:20:45;;;;;;;0.00;0.00;;;3.00;99.90;;;;;;4942386;28;20062;-58
2021/12/28 00:23:19;;;;;;;0.00;0.00;;;3.60;99.90;;;;;;4940481;28;20749;-59
2021/12/28 00:25:47;;;;;;;0.00;0.00;;;3.10;99.90;;;;;;4941820;28;20598;-58
2021/12/28 00:28:13;;;;;;;0.35;0.35;;;3.20;99.90;;;;;;4943521;28;20047;-59
2021/12/28 00:30:39;;;;;;;0.00;0.00;;;3.40;99.90;;;;;;4950474;28;20590;-59
2021/12/28 00:33:05;;;;;;;0.00;0.00;;;3.10;99.90;;;;;;4939877;28;20047;-58
2021/12/28 00:35:33;;;;;;;1.95;1.10;;;3.10;99.90;;;;;;4942400;28;20039;-58
2021/12/28 00:38:00;;;;;;;0.00;0.00;;;3.20;99.90;;;;;;4942323;28;20051;-59
2021/12/28 00:40:25;;;;;;;0.00;0.00;;;3.20;99.90;;;;;;4941606;28;20040;-58
2021/12/28 00:42:51;;;;;;;0.00;0.00;;;3.30;99.90;;;;;;4941169;28;20422;-58
2021/12/28 00:45:17;;;;;;;0.10;0.10;;;3.30;99.90;;;;;;4941549;28;20494;-57
2021/12/28 00:47:43;;;;;;;0.10;0.10;;;3.30;99.90;;;;;;4941586;28;20058;-57
2021/12/28 00:50:11;;;;;;;0.00;0.00;;;3.30;99.90;;;;;;4940565;28;20097;-58
2021/12/28 00:52:37;;;;;;;0.00;0.00;;;3.40;99.90;;;;;;4944857;28;20130;-58
2021/12/28 00:55:05;;;;;;;0.00;0.00;;;3.30;99.90;;;;;;4944434;28;20151;-58
2021/12/28 00:57:31;;;;;;;0.00;0.00;;;3.40;99.90;;;;;;4943451;29;20047;-58
2021/12/28 00:59:56;;;;;;;0.00;0.00;;;3.30;99.90;;;;;;4944826;28;20501;-58
2021/12/28 01:02:22;;;;;;;0.10;0.10;;;3.30;99.90;;;;;;4944795;28;20452;-57
2021/12/28 01:04:48;;;;;;;0.30;0.30;;;3.30;99.90;;;;;;4944627;28;20043;-58
2021/12/28 01:07:13;;;;;;;0.00;0.00;;;3.40;99.90;;;;;;4944801;28;20047;-58
2021/12/28 01:09:41;;;;;;;0.00;0.00;;;3.40;99.90;;;;;;4944488;28;20074;-58
2021/12/28 01:12:07;;;;;;;0.00;0.00;;;3.40;99.90;;;;;;4944878;28;20051;-59
2021/12/28 01:14:33;;;;;;;0.00;0.00;;;3.40;99.90;;;;;;4944143;28;20086;-59
2021/12/28 01:17:01;;;;;;;0.00;0.00;;;3.40;99.90;;;;;;4944548;28;20073;-59
2021/12/28 01:19:28;;;;;;;0.10;0.10;;;3.40;99.90;;;;;;4944696;28;20165;-59
2021/12/28 01:21:54;;;;;;;0.00;0.00;;;3.50;99.90;;;;;;4944466;28;20040;-59
2021/12/28 01:24:20;;;;;;;0.00;0.00;;;3.40;99.90;;;;;;4944705;28;20047;-59
2021/12/28 01:26:46;;;;;;;0.00;0.00;;;3.40;99.90;;;;;;4944210;28;20490;-59
2021/12/28 01:29:12;;;;;;;0.00;0.00;;;3.40;99.90;;;;;;4953636;28;20548;-58
2021/12/28 01:31:38;;;;;;;0.00;0.00;;;3.40;99.90;;;;;;4945368;28;20079;-59
2021/12/28 01:34:08;;;;;;;0.00;0.00;;;3.40;99.90;;;;;;4943885;28;20036;-59
2021/12/28 01:36:34;;;;;;;0.00;0.00;;;3.40;99.90;;;;;;4944011;28;20047;-59
2021/12/28 01:39:01;;;;;;;0.00;0.00;;;3.50;99.90;;;;;;4944632;28;20144;-59
2021/12/28 01:41:27;;;;;;;0.00;0.00;;;3.50;99.90;;;;;;4944553;28;20388;-59
2021/12/28 01:44:02;;;;;;;0.00;0.00;;;3.50;99.90;;;;;;4943704;28;20043;-58
2021/12/28 01:46:28;;;;;;;0.00;0.00;;;3.50;99.90;;;;;;4944157;28;20062;-59
2021/12/28 01:48:54;;;;;;;0.00;0.00;;;3.40;99.90;;;;;;4944176;28;20050;-59
2021/12/28 01:51:22;;;;;;;0.00;0.00;;;3.50;99.90;;;;;;4944113;28;20035;-59
2021/12/28 01:53:52;;;;;;;0.28;0.22;;;3.50;99.90;;;;;;4944036;28;20043;-59
2021/12/28 01:56:29;;;;;;;0.00;0.00;;;3.60;99.90;;;;;;4942431;28;20055;-61
2021/12/28 01:58:55;;;;;;;0.00;0.00;;;3.60;99.90;;;;;;4941815;28;20055;-58
2021/12/28 02:01:22;;;;;;;0.00;0.00;;;3.60;99.90;;;;;;4943934;28;20132;-59
2021/12/28 02:03:48;;;;;;;0.35;0.35;;;3.60;99.90;;;;;;4943648;28;20078;-58
2021/12/28 02:06:14;;;;;;;0.00;0.00;;;3.70;99.90;;;;;;4943742;28;20525;-59
2021/12/28 02:08:40;;;;;;;0.00;0.00;;;3.70;99.90;;;;;;4943545;28;20502;-58
2021/12/28 02:11:08;;;;;;;0.00;0.00;;;3.30;99.90;;;;;;4942922;29;20260;-59
2021/12/28 02:16:00;;;;;;;0.00;0.00;;;3.70;99.90;;;;;;5019786;28;20110;-59
2021/12/28 02:18:27;;;;;;;0.00;0.00;;;3.80;99.90;;;;;;5024307;28;20041;-59
2021/12/28 02:20:54;;;;;;;0.00;0.00;;;4.00;99.90;;;;;;5012622;28;20052;-59
2021/12/28 02:23:20;;;;;;;0.00;0.00;;;3.90;99.90;;;;;;5004427;28;20619;-59
2021/12/28 02:25:46;;;;;;;0.00;0.00;;;3.90;99.90;;;;;;5004206;28;20064;-58
2021/12/28 02:28:14;;;;;;;0.00;0.00;;;3.90;99.90;;;;;;5006536;28;20045;-59
2021/12/28 02:30:43;;;;;;;0.00;0.00;;;3.90;99.90;;;;;;5013392;28;20042;-59
2021/12/28 02:33:09;;;;;;;0.00;0.00;;;3.90;99.90;;;;;;5003911;28;20049;-58
2021/12/28 02:35:37;;;;;;;0.00;0.00;;;3.80;99.90;;;;;;5003343;28;20099;-58
2021/12/28 02:38:05;;;;;;;0.00;0.00;;;3.80;99.90;;;;;;5004840;28;20038;-58
2021/12/28 02:40:31;;;;;;;0.00;0.00;;;3.90;99.90;;;;;;5005179;28;20377;-58
2021/12/28 02:42:59;;;;;;;0.00;0.00;;;3.90;99.90;;;;;;5003587;28;20034;-59
2021/12/28 02:45:27;;;;;;;0.00;0.00;;;4.00;99.90;;;;;;5004315;28;20508;-58
2021/12/28 02:47:53;;;;;;;0.00;0.00;;;3.90;99.90;;;;;;5004932;28;20070;-59
2021/12/28 02:50:32;;;;;;;0.00;0.00;;;3.90;99.90;;;;;;5004596;28;20427;-59
2021/12/28 02:52:58;;;;;;;0.00;0.00;;;3.90;99.90;;;;;;5019793;28;20045;-59
2021/12/28 02:55:28;;;;;;;0.00;0.00;;;3.90;99.90;;;;;;5004479;28;20112;-59
2021/12/28 02:58:00;;;;;;;0.00;0.00;;;4.00;99.90;;;;;;5003699;28;20045;-59
2021/12/28 03:00:36;;;;;;;0.00;0.00;;;4.00;99.90;;;;;;5003198;28;20053;-58
2021/12/28 03:03:15;;;;;;;0.00;0.00;;;4.10;99.90;;;;;;5003106;28;20511;-58
2021/12/28 03:05:43;;;;;;;0.70;0.22;;;4.10;99.90;;;;;;5003197;28;20046;-58
2021/12/28 03:08:09;;;;;;;0.05;0.05;;;4.00;99.90;;;;;;5002551;28;20519;-59
2021/12/28 03:10:37;;;;;;;0.00;0.00;;;4.10;99.90;;;;;;5004206;28;20113;-58
2021/12/28 03:13:04;;;;;;;0.00;0.00;;;4.10;99.90;;;;;;5003179;28;20519;-58
2021/12/28 03:15:29;;;;;;;0.00;0.00;;;4.10;99.90;;;;;;5004198;28;20137;-59
2021/12/28 03:17:55;;;;;;;0.00;0.00;;;4.10;99.90;;;;;;5004173;28;20670;-59
2021/12/28 03:20:21;;;;;;;0.00;0.00;;;4.10;99.90;;;;;;5003781;28;20129;-59
2021/12/28 03:22:46;;;;;;;0.00;0.00;;;4.10;99.90;;;;;;5004046;28;20404;-59
2021/12/28 03:25:12;;;;;;;0.00;0.00;;;4.10;99.90;;;;;;5003836;28;20188;-58
2021/12/28 03:27:40;;;;;;;0.08;0.08;;;4.10;99.90;;;;;;5005501;28;20030;-58
2021/12/28 03:30:08;;;;;;;0.00;0.00;;;4.10;99.90;;;;;;5012242;28;20042;-58
2021/12/28 03:32:34;;;;;;;0.00;0.00;;;4.10;99.90;;;;;;5002870;28;20108;-59
2021/12/28 03:34:59;;;;;;;0.10;0.10;;;4.20;99.90;;;;;;5019231;28;20053;-58
2021/12/28 03:37:25;;;;;;;0.00;0.00;;;4.20;99.90;;;;;;5002419;28;20520;-59
2021/12/28 03:39:50;;;;;;;0.00;0.00;;;4.20;99.90;;;;;;5003621;28;20046;-58
2021/12/28 03:42:16;;;;;;;0.28;0.20;;;4.20;99.90;;;;;;5002957;28;20042;-56
2021/12/28 03:44:42;;;;;;;2.05;0.57;;;4.20;99.90;;;;;;5003526;28;20141;-58
2021/12/28 03:47:08;;;;;;;0.00;0.00;;;4.20;99.90;;;;;;5003758;28;20046;-59
2021/12/28 03:49:33;;;;;;;0.28;0.28;;;4.20;99.90;;;;;;5003876;28;20060;-58
2021/12/28 03:52:01;;;;;;;0.00;0.00;;;4.20;99.90;;;;;;5003215;28;20124;-58
2021/12/28 03:54:27;;;;;;;0.00;0.00;;;4.20;99.90;;;;;;5018950;28;20050;-59
2021/12/28 03:56:53;;;;;;;0.00;0.00;;;4.20;99.90;;;;;;5002330;28;20451;-58
2021/12/28 03:59:19;;;;;;;0.00;0.00;;;4.20;99.90;;;;;;5003141;28;20099;-58
2021/12/28 04:01:45;;;;;;;0.00;0.00;;;4.20;99.90;;;;;;5003292;28;20046;-58
2021/12/28 04:04:10;;;;;;;0.00;0.00;;;4.20;99.90;;;;;;5003644;28;20054;-58
2021/12/28 04:06:36;;;;;;;0.00;0.00;;;4.20;99.90;;;;;;5003574;28;20050;-59
2021/12/28 04:09:04;;;;;;;0.00;0.00;;;4.20;99.90;;;;;;5003956;28;20930;-58
2021/12/28 04:11:29;;;;;;;0.00;0.00;;;4.20;99.90;;;;;;5004092;28;20089;-59
2021/12/28 04:13:58;;;;;;;0.00;0.00;;;4.20;99.90;;;;;;5002328;28;20080;-59
2021/12/28 04:16:24;;;;;;;0.00;0.00;;;4.30;99.90;;;;;;5018307;28;20054;-59
2021/12/28 04:18:51;;;;;;;0.00;0.00;;;4.10;99.90;;;;;;5003690;28;20046;-59
2021/12/28 04:21:17;;;;;;;0.00;0.00;;;5.20;99.90;;;;;;5003437;28;20048;-58
2021/12/28 04:23:43;;;;;;;0.13;0.13;;;4.20;99.90;;;;;;5002949;28;20122;-58
2021/12/28 04:26:09;;;;;;;0.00;0.00;;;4.10;99.90;;;;;;5003598;28;20519;-59
2021/12/28 04:28:35;;;;;;;0.00;0.00;;;4.20;99.90;;;;;;5011819;28;20038;-59
2021/12/28 04:31:01;;;;;;;0.00;0.00;;;4.20;99.90;;;;;;5013505;28;20053;-59
2021/12/28 04:33:26;;;;;;;0.00;0.00;;;4.20;99.90;;;;;;5007277;28;20042;-58
2021/12/28 04:35:52;;;;;;;0.00;0.00;;;4.20;99.90;;;;;;5006582;28;20099;-59
2021/12/28 04:38:18;;;;;;;0.00;0.00;;;4.20;99.90;;;;;;5005482;28;20369;-58
2021/12/28 04:40:44;;;;;;;0.00;0.00;;;4.20;99.90;;;;;;5007169;28;20652;-59
2021/12/28 04:43:11;;;;;;;0.00;0.00;;;4.20;99.90;;;;;;5006488;28;20088;-59
2021/12/28 04:45:37;;;;;;;0.00;0.00;;;4.20;99.90;;;;;;5005303;28;20049;-59
2021/12/28 04:48:05;;;;;;;0.00;0.00;;;4.20;99.90;;;;;;5006642;28;20065;-59
2021/12/28 04:50:38;;;;;;;0.10;0.10;;;4.20;99.90;;;;;;5007027;28;20092;-59
2021/12/28 04:53:09;;;;;;;0.00;0.00;;;4.20;99.90;;;;;;5006808;28;20520;-58
2021/12/28 04:55:37;;;;;;;0.00;0.00;;;4.20;99.90;;;;;;5006360;28;20033;-59
2021/12/28 04:58:03;;;;;;;0.75;0.75;;;4.20;99.90;;;;;;5005738;28;20188;-58
2021/12/28 05:00:30;;;;;;;0.20;0.20;;;5.70;99.90;;;;;;5007260;28;20038;-59
2021/12/28 05:02:56;;;;;;;0.00;0.00;;;4.30;99.90;;;;;;5006398;28;20068;-59
2021/12/28 05:05:22;;;;;;;0.00;0.00;;;4.40;99.90;;;;;;5006052;28;20046;-58
2021/12/28 05:07:48;;;;;;;0.00;0.00;;;4.40;99.90;;;;;;5006379;28;20042;-59
2021/12/28 05:10:13;;;;;;;0.00;0.00;;;4.40;99.90;;;;;;5006577;28;20045;-59
2021/12/28 05:12:39;;;;;;;0.00;0.00;;;4.40;99.90;;;;;;5005921;28;20050;-58
2021/12/28 05:15:06;;;;;;;0.00;0.00;;;4.40;99.90;;;;;;5004517;28;20074;-59
2021/12/28 05:17:32;;;;;;;0.13;0.13;;;4.40;99.90;;;;;;5006211;28;20702;-58
2021/12/28 05:19:58;;;;;;;0.00;0.00;;;4.40;99.90;;;;;;5006430;28;20121;-58
2021/12/28 05:22:24;;;;;;;0.00;0.00;;;4.30;99.90;;;;;;5004974;28;20045;-58
2021/12/28 05:24:50;;;;;;;0.00;0.00;;;4.40;99.90;;;;;;5006029;28;20573;-59
2021/12/28 05:27:16;;;;;;;0.00;0.00;;;4.40;99.90;;;;;;5003490;28;20570;-60
2021/12/28 05:29:43;;;;;;;0.00;0.00;;;4.30;99.90;;;;;;5017269;28;21004;-60
2021/12/28 05:32:09;;;;;;;0.30;0.30;;;4.30;99.90;;;;;;5005973;28;20052;-60
2021/12/28 05:34:34;;;;;;;0.00;0.00;;;4.30;99.90;;;;;;5021453;28;20053;-60
2021/12/28 05:37:00;;;;;;;0.00;0.00;;;4.30;99.90;;;;;;5005544;28;20046;-60
2021/12/28 05:39:26;;;;;;;0.00;0.00;;;4.20;99.90;;;;;;5005447;28;20105;-60
2021/12/28 05:41:51;;;;;;;0.00;0.00;;;4.20;99.90;;;;;;5003777;28;20108;-60
2021/12/28 05:44:18;;;;;;;0.10;0.10;;;4.30;99.90;;;;;;5005929;28;20410;-60
2021/12/28 05:46:45;;;;;;;0.00;0.00;;;4.20;99.90;;;;;;5004141;28;20068;-59
2021/12/28 05:49:10;;;;;;;0.00;0.00;;;4.20;99.90;;;;;;5005490;28;20481;-60
2021/12/28 05:51:36;;;;;;;0.00;0.00;;;4.20;99.90;;;;;;5005737;28;20057;-59
2021/12/28 05:54:02;;;;;;;0.00;0.00;;;4.20;99.90;;;;;;5005745;28;20816;-58
2021/12/28 05:56:28;;;;;;;0.00;0.00;;;4.20;99.90;;;;;;5006021;28;20046;-59
2021/12/28 05:58:54;;;;;;;0.00;0.00;;;4.10;99.90;;;;;;5003503;28;20470;-58
2021/12/28 06:01:19;;;;;;;0.00;0.00;;;4.10;99.90;;;;;;5005119;28;20080;-59
2021/12/28 06:03:45;;;;;;;0.10;0.10;;;4.20;99.90;;;;;;5005489;28;20099;-58
2021/12/28 06:06:11;;;;;;;0.00;0.00;;;4.10;99.90;;;;;;5005629;28;20551;-58
2021/12/28 06:08:37;;;;;;;0.00;0.00;;;4.20;99.90;;;;;;5005497;28;20128;-57
2021/12/28 06:11:05;;;;;;;0.00;0.00;;;4.10;99.90;;;;;;5004874;28;20133;-58
2021/12/28 06:13:31;;;;;;;0.00;0.00;;;4.10;99.90;;;;;;5004972;28;20049;-58
2021/12/28 06:15:57;;;;;;;0.00;0.00;;;4.10;99.90;;;;;;5004801;28;20046;-58
2021/12/28 06:18:23;;;;;;;0.00;0.00;;;4.20;99.90;;;;;;5005311;28;20125;-58
2021/12/28 06:20:48;;;;;;;0.00;0.00;;;4.20;99.90;;;;;;5004842;28;20060;-59
2021/12/28 06:23:14;;;;;;;0.00;0.00;;;4.20;99.90;;;;;;5004603;28;20042;-58
2021/12/28 06:25:40;;;;;;;0.00;0.00;;;4.20;99.90;;;;;;5003680;28;20061;-58
2021/12/28 06:28:06;;;;;;;0.00;0.00;;;4.40;99.90;;;;;;5006596;28;20042;-58
2021/12/28 06:30:33;;;;;;;0.00;0.00;;;4.20;99.90;;;;;;5013748;28;20125;-58
2021/12/28 06:32:59;;;;;;;0.17;0.17;;;4.10;99.90;;;;;;5004727;28;20057;-58
2021/12/28 06:35:25;;;;;;;0.00;0.00;;;4.10;99.90;;;;;;5004719;28;20046;-57
2021/12/28 06:37:51;;;;;;;0.00;0.00;;;4.20;99.90;;;;;;5004821;28;20041;-59
2021/12/28 06:40:16;;;;;;;0.00;0.00;;;4.20;99.90;;;;;;5004641;28;20053;-57
2021/12/28 06:42:42;;;;;;;0.00;0.00;;;4.20;99.90;;;;;;5003977;28;20579;-59
2021/12/28 06:45:08;;;;;;;0.30;0.30;;;4.90;99.90;;;;;;5004190;28;20086;-59
2021/12/28 06:47:34;;;;;;;0.00;0.00;;;4.30;99.90;;;;;;5004564;28;20389;-59
2021/12/28 06:50:00;;;;;;;0.00;0.00;;;4.30;99.90;;;;;;5019492;28;20045;-59
2021/12/28 06:52:25;;;;;;;0.00;0.00;;;4.30;99.90;;;;;;5004481;28;20092;-59
2021/12/28 06:54:51;;;;;;;0.00;0.00;;;4.40;99.90;;;;;;5004096;28;20069;-59
2021/12/28 06:57:17;;;;;;;0.00;0.00;;;4.40;99.90;;;;;;5003944;28;20042;-58
2021/12/28 06:59:44;;;;;;;0.10;0.10;;;4.40;99.90;;;;;;5002873;28;20115;-59
2021/12/28 07:02:11;;;;;;;0.00;0.00;;;4.40;99.90;;;;;;5004743;28;20046;-59
2021/12/28 07:04:37;;;;;;;0.00;0.00;;;4.40;99.90;;;;;;5004240;28;20065;-59
2021/12/28 07:07:04;;;;;;;0.00;0.00;;;4.40;99.90;;;;;;5003780;28;20054;-59
2021/12/28 07:09:29;;;;;;;0.00;0.00;;;4.40;99.90;;;;;;5004537;28;20048;-59
2021/12/28 07:11:55;;;;;;;0.10;0.10;;;4.40;99.90;;;;;;5003692;28;20045;-59
2021/12/28 07:14:21;;;;;;;0.00;0.00;;;4.40;99.90;;;;;;5003747;28;20814;-59
2021/12/28 07:16:46;;;;;;;0.00;0.00;;;4.40;99.90;;;;;;5003667;28;20058;-59
2021/12/28 07:19:12;;;;;;;0.00;0.00;;;4.30;99.90;;;;;;5004228;28;20038;-59
2021/12/28 07:21:39;;;;;;;0.00;0.00;;;4.40;99.90;;;;;;5019245;28;20054;-60
2021/12/28 07:24:09;;;;;;;0.00;0.00;;;4.40;99.90;;;;;;5003839;28;20064;-59
2021/12/28 07:26:36;;;;;;;0.00;0.00;;;4.40;99.90;;;;;;5001813;28;20053;-59
2021/12/28 07:29:03;;;;;;;0.00;0.00;;;4.40;99.90;;;;;;5012661;28;20049;-60
2021/12/28 07:31:29;;;;;;;0.00;0.00;;;4.30;99.90;;;;;;5006492;28;20034;-60
2021/12/28 07:33:55;;;;;;;0.00;0.00;;;4.30;99.90;;;;;;5003621;28;20046;-60
2021/12/28 07:36:21;;;;;;;0.00;0.00;;;4.40;99.90;;;;;;5003825;28;20108;-59
2021/12/28 07:38:46;;;;;;;0.00;0.00;;;4.40;99.90;;;;;;5003400;28;20042;-60
2021/12/28 07:41:13;;;;;;;0.00;0.00;;;4.40;99.90;;;;;;5002651;28;20050;-60
2021/12/28 07:43:39;;;;;;;0.00;0.00;;;4.40;99.90;;;;;;5003040;28;20056;-60
2021/12/28 07:46:04;;;;;;;0.00;0.00;;;4.40;99.90;;;;;;5002022;28;20050;-60
2021/12/28 07:48:30;;;;;;;0.00;0.00;;;4.40;99.90;;;;;;5004112;28;20048;-60
2021/12/28 07:50:57;;;;;;;0.00;0.00;;;4.40;99.90;;;;;;5003392;28;20488;-60
2021/12/28 07:53:23;;;;;;;0.00;0.00;;;4.40;99.90;;;;;;5003534;28;20256;-60
2021/12/28 07:55:48;;;;;;;0.00;0.00;;;4.50;99.90;;;;;;5003218;28;20041;-60
2021/12/28 07:58:14;;;;;;;0.00;0.00;;;4.50;99.90;;;;;;5002901;28;20129;-60
2021/12/28 08:00:40;;;;;;;0.32;0.32;;;4.50;99.90;;;;;;5005376;28;20038;-59
2021/12/28 08:03:06;;;;;;;0.00;0.00;;;4.80;99.90;;;;;;5007920;28;20772;-58
2021/12/28 08:05:33;;;;;;;0.00;0.00;;;4.60;99.90;;;;;;5008090;28;20038;-60
2021/12/28 08:07:59;;;;;;;0.00;0.00;;;4.60;99.90;;;;;;5007842;28;20579;-59
2021/12/28 08:10:25;;;;;;;0.00;0.00;;;4.70;99.90;;;;;;5007552;28;20046;-60
2021/12/28 08:12:54;;;;;;;0.00;0.00;;;4.70;99.90;;;;;;5006562;28;20099;-59
2021/12/28 08:15:21;;;;;;;0.00;0.00;;;4.70;99.90;;;;;;5005706;28;20076;-59
2021/12/28 08:17:47;;;;;;;0.00;0.00;;;4.70;99.90;;;;;;5006003;28;20038;-59
2021/12/28 08:20:14;;;;;;;0.00;0.00;;;4.70;99.90;;;;;;5007464;28;20042;-60
2021/12/28 08:22:41;;;;;;;2.92;1.30;;;5.30;99.90;;;;;;5006958;28;20050;-58
2021/12/28 08:25:09;;;;;;;0.00;0.00;;;4.80;99.90;;;;;;5007100;28;20072;-59
2021/12/28 08:27:35;;;;;;;0.00;0.00;;;4.80;99.90;;;;;;5007984;28;20049;-60
2021/12/28 08:30:01;;;;;;;0.00;0.00;;;4.80;99.90;;;;;;5016836;28;20042;-61
2021/12/28 08:32:26;;;;;;;0.00;0.00;;;4.90;99.90;;;;;;5006718;28;20096;-60
2021/12/28 08:34:52;;;;;;;0.00;0.00;;;4.90;99.90;;;;;;5006977;28;20679;-60
2021/12/28 08:37:18;;;;;;;0.00;0.00;;;4.90;99.90;;;;;;5006846;28;20042;-60
2021/12/28 08:39:44;;;;;;;0.00;0.00;;;5.30;99.90;;;;;;5005590;28;20046;-60
2021/12/28 08:42:10;;;;;;;0.10;0.10;;;5.00;99.90;;;;;;5005819;28;20523;-60
2021/12/28 08:44:36;;;;;;;0.00;0.00;;;5.10;99.90;;;;;;5007061;28;20049;-60
2021/12/28 08:47:02;;;;;;;0.00;0.00;;;5.10;99.90;;;;;;5007153;28;20050;-60
2021/12/28 08:49:28;;;;;;;0.00;0.00;;;5.10;99.90;;;;;;5007485;28;20404;-60
2021/12/28 08:51:54;;;;;;;0.00;0.00;;;5.20;99.90;;;;;;5006615;28;20053;-60
2021/12/28 08:54:20;;;;;;;0.68;0.47;;;5.30;99.90;;;;;;5006654;28;20046;-60
2021/12/28 08:56:46;;;;;;;0.00;0.00;;;5.20;99.90;;;;;;5006076;28;20382;-60
2021/12/28 08:59:13;;;;;;;0.10;0.10;;;5.30;99.90;;;;;;5006534;28;20136;-61
2021/12/28 09:01:39;;;;;;;0.00;0.00;;;5.30;99.90;;;;;;5006947;28;20401;-61
2021/12/28 09:04:05;;;;;;;0.00;0.00;;;5.40;99.90;;;;;;5005932;28;20050;-60
2021/12/28 09:06:31;;;;;;;0.00;0.00;;;5.40;99.90;;;;;;5006741;28;20562;-60
2021/12/28 09:08:57;;;;;;;0.00;0.00;;;5.40;99.90;;;;;;5006064;28;20129;-60
2021/12/28 09:11:22;;;;;;;0.00;0.00;;;5.50;99.90;;;;;;5003804;28;20080;-60
2021/12/28 09:13:48;;;;;;;0.00;0.00;;;5.50;99.90;;;;;;5006189;28;20049;-60
2021/12/28 09:16:14;;;;;;;0.00;0.00;;;6.10;99.90;;;;;;5005852;28;20041;-60
2021/12/28 09:18:40;;;;;;;0.00;0.00;;;5.60;99.90;;;;;;5006112;28;20056;-60
2021/12/28 09:21:06;;;;;;;0.00;0.00;;;5.60;99.90;;;;;;5006178;28;20515;-60
2021/12/28 09:23:32;;;;;;;0.00;0.00;;;5.60;99.90;;;;;;5006350;28;20133;-60
2021/12/28 09:25:58;;;;;;;0.20;0.20;;;5.70;99.90;;;;;;5005980;28;20049;-60
2021/12/28 09:28:23;;;;;;;0.08;0.08;;;5.80;99.90;;;;;;5008600;28;20049;-60
2021/12/28 09:30:49;;;;;;;0.00;0.00;;;5.80;99.90;;;;;;5013568;28;20038;-60
2021/12/28 09:33:15;;;;;;;0.00;0.00;;;5.90;99.90;;;;;;5005857;28;20056;-61
2021/12/28 09:35:42;;;;;;;0.30;0.30;;;5.90;99.90;;;;;;5005794;28;20046;-59
2021/12/28 09:38:08;;;;;;;0.00;0.00;;;5.90;99.90;;;;;;5020176;28;20053;-62
2021/12/28 09:40:34;;;;;;;0.00;0.00;;;6.20;99.90;;;;;;5006232;28;20521;-61
2021/12/28 09:43:02;;;;;;;0.22;0.22;;;6.90;99.90;;;;;;5005399;28;20037;-61
2021/12/28 09:45:28;;;;;;;0.10;0.10;;;6.30;99.90;;;;;;5005062;28;20049;-60
2021/12/28 09:47:54;;;;;;;0.00;0.00;;;6.20;99.90;;;;;;5005400;28;20072;-60
2021/12/28 09:50:20;;;;;;;0.00;0.00;;;6.20;99.90;;;;;;5005208;28;20049;-60
2021/12/28 09:52:48;;;;;;;0.10;0.10;;;6.30;99.90;;;;;;5005828;28;20103;-61
2021/12/28 09:55:18;;;;;;;0.00;0.00;;;6.30;99.90;;;;;;5005757;28;20038;-60
2021/12/28 09:57:45;;;;;;;0.00;0.00;;;6.30;99.90;;;;;;5004597;28;20479;-61
2021/12/28 10:00:12;;;;;;;0.00;0.00;;;6.30;99.90;;;;;;5005457;28;20050;-60
2021/12/28 10:02:38;;;;;;;0.00;0.00;;;6.40;99.90;;;;;;5005357;28;20370;-60
2021/12/28 10:05:08;;;;;;;0.00;0.00;;;6.40;99.90;;;;;;5005070;28;20129;-60
2021/12/28 10:07:37;;;;;;;0.00;0.00;;;6.50;99.90;;;;;;5005450;28;20046;-60
2021/12/28 10:10:06;;;;;;;0.00;0.00;;;6.50;99.90;;;;;;5004804;28;20085;-60
2021/12/28 10:12:37;;;;;;;0.00;0.00;;;6.60;99.90;;;;;;5005007;28;20625;-60
2021/12/28 10:15:08;;;;;;;0.00;0.00;;;6.60;99.90;;;;;;5005186;28;20423;-61
2021/12/28 10:17:35;;;;;;;0.00;0.00;;;6.70;99.90;;;;;;5004491;28;20048;-61
2021/12/28 10:20:05;;;;;;;0.00;0.00;;;6.70;99.90;;;;;;5005363;28;20041;-60
2021/12/28 10:22:52;;;;;;;0.00;0.00;;;6.80;99.90;;;;;;5005166;28;20519;-60
2021/12/28 10:25:25;;;;;;;0.00;0.00;;;6.80;99.90;;;;;;5004586;28;20143;-60
2021/12/28 10:27:53;;;;;;;0.00;0.00;;;6.80;99.90;;;;;;5006495;28;20695;-60
2021/12/28 10:30:23;;;;;;;0.00;0.00;;;6.80;99.90;;;;;;5013650;28;20038;-60
2021/12/28 10:33:04;;;;;;;0.00;0.00;;;6.80;99.90;;;;;;5004704;28;20408;-61
2021/12/28 10:35:36;;;;;;;0.00;0.00;;;6.80;99.90;;;;;;5005506;28;20045;-60
2021/12/28 10:38:07;;;;;;;0.00;0.00;;;6.80;99.90;;;;;;5005023;28;20404;-60
2021/12/28 10:40:36;;;;;;;0.00;0.00;;;6.80;99.90;;;;;;5004136;28;20448;-60
2021/12/28 10:43:16;;;;;;;0.00;0.00;;;6.70;99.90;;;;;;5004118;28;20409;-61
2021/12/28 10:45:48;;;;;;;0.10;0.10;;;6.70;99.90;;;;;;5004302;28;20042;-60
2021/12/28 10:48:19;;;;;;;0.00;0.00;;;6.70;99.90;;;;;;5003855;28;20081;-60
2021/12/28 10:50:54;;;;;;;0.00;0.00;;;6.70;99.90;;;;;;5004368;28;20447;-59
2021/12/28 10:53:32;;;;;;;0.00;0.00;;;6.70;99.90;;;;;;5004569;28;20058;-60
2021/12/28 10:56:02;;;;;;;0.00;0.00;;;6.70;99.90;;;;;;5003362;28;20050;-60
2021/12/28 10:58:33;;;;;;;0.20;0.20;;;6.70;99.90;;;;;;5004591;28;20116;-59
2021/12/28 11:01:06;;;;;;;0.00;0.00;;;6.70;99.90;;;;;;5004591;28;20045;-59
2021/12/28 11:03:35;;;;;;;0.00;0.00;;;6.70;99.90;;;;;;5002111;28;20134;-71
2021/12/28 11:06:20;;;;;;;0.00;0.00;;;6.70;99.90;;;;;;5003391;28;20601;-71
2021/12/28 11:08:49;;;;;;;0.13;0.13;;;7.20;99.90;;;;;;5002899;28;20134;-71
2021/12/28 11:11:18;;;;;;;0.05;0.05;;;7.00;99.90;;;;;;5001302;28;20045;-71
2021/12/28 11:13:45;;;;;;;0.00;0.00;;;6.70;99.90;;;;;;5017377;28;20059;-70
2021/12/28 11:16:13;;;;;;;0.00;0.00;;;6.70;99.90;;;;;;5003279;28;20054;-70
2021/12/28 11:18:43;;;;;;;0.00;0.00;;;6.70;99.90;;;;;;5003680;28;20065;-70
2021/12/28 11:21:16;;;;;;;0.00;0.00;;;7.00;99.90;;;;;;5001744;28;20046;-70
2021/12/28 11:23:42;;;;;;;0.35;0.28;;;6.70;99.90;;;;;;5003205;28;20049;-70
2021/12/28 11:26:13;;;;;;;0.00;0.00;;;7.60;99.90;;;;;;5017540;28;20050;-70
2021/12/28 11:28:41;;;;;;;0.00;0.00;;;6.60;99.90;;;;;;5008939;28;20145;-70
2021/12/28 11:31:17;;;;;;;0.00;0.00;;;6.60;99.90;;;;;;5006840;28;20054;-71
2021/12/28 11:33:44;;;;;;;0.00;0.00;;;6.60;99.90;;;;;;5018543;28;20038;-70
2021/12/28 11:36:10;;;;;;;0.00;0.00;;;6.60;99.90;;;;;;5001745;28;20077;-70
2021/12/28 11:38:36;;;;;;;0.00;0.00;;;6.60;99.90;;;;;;5017863;28;20064;-70
2021/12/28 11:41:04;;;;;;;0.20;0.20;;;6.60;99.90;;;;;;5000977;28;20061;-70
2021/12/28 11:43:33;;;;;;;0.00;0.00;;;6.50;99.90;;;;;;5002251;28;20050;-70
2021/12/28 11:45:59;;;;;;;0.00;0.00;;;6.50;99.90;;;;;;5002017;28;20038;-70
2021/12/28 11:48:25;;;;;;;0.00;0.00;;;6.50;99.90;;;;;;5001222;28;20083;-70
2021/12/28 11:50:51;;;;;;;0.00;0.00;;;6.50;99.90;;;;;;5001471;28;20137;-70
2021/12/28 11:53:17;;;;;;;0.00;0.00;;;6.50;99.90;;;;;;5001775;28;20057;-70
2021/12/28 11:55:43;;;;;;;0.00;0.00;;;6.50;99.90;;;;;;5000792;28;20037;-70
2021/12/28 11:58:09;;;;;;;0.08;0.08;;;7.10;99.90;;;;;;5018222;28;20061;-59
2021/12/28 12:00:40;;;;;;;0.00;0.00;;;6.60;99.90;;;;;;5003033;28;20628;-60
2021/12/28 12:03:06;;;;;;;0.00;0.00;;;6.60;99.90;;;;;;5002186;28;20058;-59
2021/12/28 12:05:34;;;;;;;0.00;0.00;;;6.70;99.90;;;;;;5003861;28;20053;-59
2021/12/28 12:08:10;;;;;;;0.00;0.00;;;6.70;99.90;;;;;;5003411;28;20088;-60
2021/12/28 12:10:38;;;;;;;0.10;0.10;;;6.70;99.90;;;;;;5003311;28;20054;-59
2021/12/28 12:13:14;;;;;;;0.00;0.00;;;6.70;99.90;;;;;;5003057;28;20458;-59
2021/12/28 12:15:43;;;;;;;0.00;0.00;;;6.70;99.90;;;;;;5003109;28;20093;-59
2021/12/28 12:18:13;;;;;;;0.00;0.00;;;6.80;99.90;;;;;;5002908;28;20125;-59
2021/12/28 12:20:46;;;;;;;0.00;0.00;;;8.10;99.90;;;;;;5003212;28;20049;-59
2021/12/28 12:23:18;;;;;;;0.00;0.00;;;7.20;99.90;;;;;;5003492;28;20048;-59
2021/12/28 12:25:47;;;;;;;0.00;0.00;;;6.80;99.90;;;;;;5002038;28;20052;-59
2021/12/28 12:28:14;;;;;;;0.00;0.00;;;6.90;99.90;;;;;;5005523;28;20091;-58
2021/12/28 12:30:54;;;;;;;0.10;0.10;;;6.80;99.90;;;;;;5011738;28;20030;-58
2021/12/28 12:33:20;;;;;;;0.05;0.05;;;6.90;99.90;;;;;;5003196;28;20050;-58
2021/12/28 12:35:55;;;;;;;0.10;0.10;;;6.70;99.90;;;;;;5002831;28;20049;-59
2021/12/28 12:38:27;;;;;;;0.00;0.00;;;6.80;99.90;;;;;;5001868;28;20317;-59
2021/12/28 12:41:11;;;;;;;0.00;0.00;;;6.80;99.90;;;;;;5002358;28;20809;-59
2021/12/28 12:43:40;;;;;;;0.00;0.00;;;6.80;99.90;;;;;;5003345;28;20057;-59
2021/12/28 12:46:17;;;;;;;0.00;0.00;;;7.40;99.90;;;;;;5002991;28;20053;-59
2021/12/28 12:48:43;;;;;;;0.00;0.00;;;6.80;99.90;;;;;;5021279;28;20104;-59
2021/12/28 12:51:21;;;;;;;0.00;0.00;;;6.90;99.90;;;;;;5005472;28;20038;-59
2021/12/28 12:53:48;;;;;;;0.10;0.10;;;6.90;99.90;;;;;;5021688;28;20107;-59
2021/12/28 12:56:20;;;;;;;0.10;0.10;;;7.40;99.90;;;;;;5005845;28;20121;-59
2021/12/28 12:58:47;;;;;;;7.47;0.82;;;6.90;99.90;;;;;;5006153;28;20038;-60
2021/12/28 13:01:27;;;;;;;0.00;0.00;;;6.90;99.90;;;;;;5006439;28;20042;-58
2021/12/28 13:03:55;;;;;;;0.00;0.00;;;7.40;99.90;;;;;;5005873;28;20050;-58